KNEL

Lakehurst Maxfield Field Airport

Lakehurst, New Jersey, USA
METAR KNEL 151800Z 23015G23KT 10SM BKN080 OVC110 17/03 A2965 RMK AO2 PK WND 20026/1703 SLPNO 6//// T01720033 58029 PNO $
Observed Flight Rules
Feb-15 @ 18:00 UTC (an hour ago) Visual Flight Rules
Wind Visibility Clouds
230° at 15 knots
 Gusting to 23 knots
10 miles
  • Broken at 8,000' AGL
  • Overcast at 11,000' AGL
Temperatures Readings
Current 17°C / 63°F
Dewpoint 3°C / 37°F
Humidity 39%
Altimeter 29.65" Hg
Pressure 1004.02 hPa
Elevation 31
METAR KNEL 151800Z 23015G23KT 10SM BKN080 OVC110 17/03 A2965 RMK AO2 PK WND 20026/1703 SLPNO 6//// T01720033 58029 PNO $
Observed Flight Rules
Feb-15 @ 18:00 UTC
(an hour ago)
VFR
Wind Visibility
230° at 15 knots
 Gusting to 23 knots
10 miles
Clouds
  • Broken at 8,000' AGL
  • Overcast at 11,000' AGL
Temperature Dewpoint
17°C / 63°F 3°C / 37°F
Humidity Altimeter Pressure
39% 29.65" Hg 1004.02 hPa